Puspokladany, Hungary
Current Conditions -  °F | °C
As of 1:45 PM on Saturday 20 Dec 2014 (Local Time) from LHDC Reporting Station
Few Clouds Few Clouds  
Wind Chill: 52°   Ceiling: Unl
Heat Index: 52°   Visibility: 6mi
Dew Point: 37°   Wind: 15mph
Humidity: 58%   Direction: 270°W
Pressure: 30.06"   Gusts: NA
Location:  47.32°N, 21.12°E
Report Text: LHDC 201145Z 27013KT 9999 FEW020 11/03 Q1018 NOSIG
Loading
Personal Weather Stations






























Interactive Weather Map New forecast layout! Learn more

10-Day Weather Forecast

Advertisements
Track Severe Weather on mobile